^^
Datos históricos de la estación: Murcia-Puente Tocinos
Diario Informe para Julio 27, 2021 Unidades:  Métrico    Ingés   Ambas
Diario Semanal Mensual Anual
  Máxima: Mínima: Promedio:
Temperatura: 31.6 °C 21.3 °C 25.8 °C
Punto de rocio: 20.3 °C 17.9 °C 19.2 °C
Humedad: 82% 45.6% 68%
Velocidad viento: 16.4km/h 0km/h 6.8km/h
Racha viento: 30.6km/h - -
Viento- - SE
Presión: 1015.1 hPa 1010.3 hPa -
Precipitación: 0.0 mm    
 
 
Tabla de datos para Julio 27, 2021
Hora Temperatura Punto de rocio Presión Viento Velocidad viento Racha viento Humedad Intensidad lluvia(por hora) Nubes
00:04 23.6 °C 18.9 °C 1014.6 hPa ESE 3.2 km/h 3.9 km/h 75% 0.0 mm
00:09 23.6 °C 18.9 °C 1014.7 hPa ESE 2.6 km/h 5.6 km/h 75% 0.0 mm
00:14 23.5 °C 18.8 °C 1014.7 hPa ESE 2.2 km/h 4.8 km/h 75% 0.0 mm
00:19 23.5 °C 18.9 °C 1014.7 hPa ESE 2.2 km/h 2.3 km/h 75.7% 0.0 mm
00:24 23.4 °C 19 °C 1014.8 hPa ESE 2.3 km/h 3.9 km/h 76.1% 0.0 mm
00:29 23.4 °C 19.1 °C 1014.8 hPa ESE 0.8 km/h 4.7 km/h 77% 0.0 mm
00:34 23.3 °C 19.1 °C 1014.8 hPa Calm   4.8 km/h 77% 0.0 mm
00:39 23.3 °C 19 °C 1014.8 hPa Calm     77% 0.0 mm
00:44 23.2 °C 18.9 °C 1014.7 hPa Calm     77% 0.0 mm
00:49 23.2 °C 19 °C 1014.7 hPa Calm     77.3% 0.0 mm
00:54 23.1 °C 19 °C 1014.8 hPa Calm     77.4% 0.0 mm
00:59 23.1 °C 19 °C 1014.8 hPa Calm     77.5% 0.0 mm
01:04 23.1 °C 19.1 °C 1014.8 hPa Calm     78% 0.0 mm
01:09 23.1 °C 19.1 °C 1014.8 hPa Calm     78% 0.0 mm
01:14 23.2 °C 19.1 °C 1014.8 hPa Calm     78% 0.0 mm
01:19 23.1 °C 19.1 °C 1014.8 hPa Calm     78% 0.0 mm
01:24 23.1 °C 19.1 °C 1014.8 hPa Calm     78.2% 0.0 mm
01:29 23 °C 19.2 °C 1014.7 hPa Calm     79% 0.0 mm
01:34 22.9 °C 19.1 °C 1014.7 hPa Calm     79% 0.0 mm
01:39 22.9 °C 19.1 °C 1014.7 hPa Calm     79% 0.0 mm
01:44 22.9 °C 19.2 °C 1014.4 hPa Calm     79.5% 0.0 mm
01:49 22.9 °C 19.2 °C 1014.4 hPa Calm   5 km/h 80% 0.0 mm
01:54 22.8 °C 19 °C 1014.4 hPa Calm   7.4 km/h 79.4% 0.0 mm
01:59 22.7 °C 19.1 °C 1014.4 hPa ESE 1.8 km/h 8 km/h 80% 0.0 mm
02:04 22.6 °C 19 °C 1014.4 hPa ESE 3.2 km/h 4.8 km/h 80% 0.0 mm
02:09 22.6 °C 19.1 °C 1014.4 hPa ESE 1.3 km/h 5.6 km/h 80.5% 0.0 mm
02:14 22.6 °C 19.2 °C 1014.2 hPa Calm   4.8 km/h 81% 0.0 mm
02:19 22.6 °C 19.2 °C 1014.2 hPa ESE 1.4 km/h 3.2 km/h 81% 0.0 mm
02:24 22.6 °C 19.1 °C 1014.3 hPa ESE 2.2 km/h 2.3 km/h 81% 0.0 mm
02:29 22.5 °C 19.1 °C 1014.3 hPa ESE 1 km/h 3.7 km/h 81% 0.0 mm
02:34 22.5 °C 19.1 °C 1014.3 hPa Calm   4.7 km/h 81% 0.0 mm
02:39 22.4 °C 19.1 °C 1014.3 hPa ESE 1.3 km/h 4.8 km/h 81.3% 0.0 mm
02:44 22.4 °C 19.1 °C 1014.3 hPa ESE 2.2 km/h 3.2 km/h 81.6% 0.0 mm
02:49 22.3 °C 19 °C 1014.3 hPa ESE 1 km/h 3.2 km/h 81% 0.0 mm
02:54 22.3 °C 18.9 °C 1014.3 hPa Calm   4.7 km/h 81.3% 0.0 mm
02:59 22.4 °C 19.1 °C 1014.2 hPa SSE 1.7 km/h 5.8 km/h 81.6% 0.0 mm
03:04 22.3 °C 18.9 °C 1014.2 hPa Sur 2.9 km/h 9.5 km/h 81% 0.0 mm
03:09 22.3 °C 18.9 °C 1014.2 hPa Sur 3.5 km/h 9.7 km/h 81% 0.0 mm
03:14 22.3 °C 18.9 °C 1014.1 hPa Sur 3.9 km/h 5.8 km/h 81% 0.0 mm
03:19 22.3 °C 18.9 °C 1014.1 hPa Sur 2.9 km/h 6.4 km/h 81% 0.0 mm
03:24 22.3 °C 18.9 °C 1014.1 hPa Sur 2.2 km/h 6.4 km/h 81% 0.0 mm
03:29 22.3 °C 18.9 °C 1014.1 hPa Sur 2.8 km/h 8.7 km/h 81% 0.0 mm
03:34 22.3 °C 18.8 °C 1014.1 hPa Sur 3.2 km/h 9.7 km/h 80.8% 0.0 mm
03:39 22.3 °C 18.7 °C 1014.2 hPa Sur 4.3 km/h 9.7 km/h 80% 0.0 mm
03:44 22.2 °C 18.6 °C 1014.2 hPa Sur 5 km/h 9.7 km/h 80% 0.0 mm
03:49 22.2 °C 18.6 °C 1014.2 hPa SSO 5.8 km/h 9.7 km/h 80% 0.0 mm
03:54 22.1 °C 18.6 °C 1014.3 hPa SO 6.5 km/h 10 km/h 80.5% 0.0 mm
03:59 22.1 °C 18.5 °C 1014.3 hPa SO 6.1 km/h 10 km/h 80% 0.0 mm
04:04 22 °C 18.4 °C 1014.3 hPa SO 5.8 km/h 9.7 km/h 80% 0.0 mm
04:09 22 °C 18.4 °C 1014.3 hPa SO 5.2 km/h 9.7 km/h 80% 0.0 mm
04:14 22 °C 18.4 °C 1014.2 hPa SO 4.7 km/h 8 km/h 80% 0.0 mm
04:19 22 °C 18.2 °C 1014.2 hPa SO 3.9 km/h 8 km/h 79.1% 0.0 mm
04:24 22.1 °C 18.3 °C 1014.2 hPa SO 3.2 km/h 8.7 km/h 79% 0.0 mm
04:29 22 °C 18.2 °C 1014.2 hPa SO 4.7 km/h 9.7 km/h 79% 0.0 mm
04:34 22 °C 18.2 °C 1014.2 hPa SSO 5.8 km/h 9.7 km/h 79% 0.0 mm
04:39 22 °C 18.2 °C 1014.2 hPa SSO 5.8 km/h 10 km/h 79.2% 0.0 mm
04:44 22.1 °C 18.5 °C 1014.2 hPa SSO 5.8 km/h 9.7 km/h 80% 0.0 mm
04:49 22 °C 18.4 °C 1014.2 hPa Sur 5.8 km/h 9.7 km/h 80% 0.0 mm
04:54 22 °C 18.4 °C 1014.2 hPa SSE 5.8 km/h 9.3 km/h 80% 0.0 mm
04:59 21.9 °C 18.3 °C 1014.0 hPa Sur 5.3 km/h 9.7 km/h 80% 0.0 mm
05:04 21.9 °C 18.3 °C 1014.0 hPa Sur 5 km/h 8.4 km/h 80% 0.0 mm
05:09 21.9 °C 18.4 °C 1014.2 hPa SSO 5 km/h 8 km/h 80.6% 0.0 mm
05:14 21.9 °C 18.5 °C 1014.2 hPa SSO 5 km/h 8 km/h 81% 0.0 mm
05:19 21.9 °C 18.5 °C 1014.2 hPa SSO 4 km/h 8 km/h 81% 0.0 mm
05:24 21.9 °C 18.5 °C 1014.2 hPa SSO 3.2 km/h 8 km/h 81% 0.0 mm
05:29 21.8 °C 18.4 °C 1014.1 hPa SO 3.2 km/h 7.4 km/h 81% 0.0 mm
05:34 21.8 °C 18.3 °C 1014.1 hPa SO 3.2 km/h 8 km/h 80.6% 0.0 mm
05:39 21.8 °C 18.4 °C 1014.2 hPa SO 3.6 km/h 8 km/h 81% 0.0 mm
05:44 21.8 °C 18.3 °C 1014.2 hPa SO 3.9 km/h 8.4 km/h 80.4% 0.0 mm
05:49 21.8 °C 18.2 °C 1014.2 hPa SSO 4.3 km/h 10 km/h 80% 0.0 mm
05:54 21.7 °C 18.1 °C 1014.3 hPa SSO 4.7 km/h 9.7 km/h 80% 0.0 mm
05:59 21.7 °C 18.1 °C 1014.3 hPa SO 4.8 km/h 9.7 km/h 80% 0.0 mm
06:04 21.7 °C 18.1 °C 1014.3 hPa Oeste 5 km/h 7.6 km/h 80% 0.0 mm
06:09 21.7 °C 18.1 °C 1014.3 hPa Oeste 3.9 km/h 8.4 km/h 80% 0.0 mm
06:14 21.6 °C 18 °C 1014.3 hPa Oeste 3.2 km/h 9.3 km/h 80% 0.0 mm
06:19 21.5 °C 18.1 °C 1014.3 hPa Oeste 4 km/h 9.7 km/h 81% 0.0 mm
06:24 21.4 °C 18 °C 1014.4 hPa Oeste 4.7 km/h 8 km/h 81% 0.0 mm
06:29 21.4 °C 18 °C 1014.4 hPa OSO 3.8 km/h 7.4 km/h 81% 0.0 mm
06:34 21.4 °C 18 °C 1014.4 hPa Oeste 3.2 km/h 8 km/h 81% 0.0 mm
06:39 21.4 °C 18 °C 1014.5 hPa SO 3.6 km/h 5.6 km/h 81% 0.0 mm
06:44 21.4 °C 18.1 °C 1014.5 hPa SO 3.9 km/h 4.8 km/h 81.6% 0.0 mm
06:49 21.4 °C 18.2 °C 1014.5 hPa SSO 1.5 km/h 5.6 km/h 82% 0.0 mm
06:54 21.4 °C 18.1 °C 1014.5 hPa Calm   5.8 km/h 81.5% 0.0 mm
06:59 21.4 °C 18.1 °C 1014.5 hPa SSO 1.7 km/h 6.4 km/h 81.4% 0.0 mm
07:04 21.4 °C 18.2 °C 1014.5 hPa SSO 2.9 km/h 7.4 km/h 81.9% 0.0 mm
07:09 21.3 °C 18.1 °C 1014.6 hPa Sur 3.1 km/h 8 km/h 82% 0.0 mm
07:14 21.3 °C 18.1 °C 1014.6 hPa SSE 3.2 km/h 8 km/h 82% 0.0 mm
07:19 21.3 °C 18.1 °C 1014.6 hPa SSE 3.2 km/h 6.4 km/h 82% 0.0 mm
07:24 21.3 °C 18.1 °C 1014.6 hPa SO 3.2 km/h 5.8 km/h 82% 0.0 mm
07:29 21.3 °C 18.1 °C 1014.6 hPa SSO 3 km/h 6.4 km/h 82% 0.0 mm
07:34 21.3 °C 17.9 °C 1014.6 hPa Sur 2.9 km/h 7.4 km/h 81.1% 0.0 mm
07:39 21.4 °C 18.1 °C 1014.6 hPa Oeste 2.9 km/h 8 km/h 81.4% 0.0 mm
07:44 21.4 °C 18 °C 1014.6 hPa ONO 2.9 km/h 8 km/h 81% 0.0 mm
07:49 21.4 °C 18 °C 1014.6 hPa ONO 3.5 km/h 8 km/h 81% 0.0 mm
07:54 21.4 °C 18 °C 1014.9 hPa Oeste 3.9 km/h 8 km/h 81% 0.0 mm
07:59 21.4 °C 18 °C 1014.9 hPa Oeste 3.9 km/h 9.3 km/h 81% 0.0 mm
08:04 21.4 °C 18 °C 1014.9 hPa Oeste 3.9 km/h 9.7 km/h 81% 0.0 mm
08:09 21.4 °C 18 °C 1015.0 hPa SSO 4.3 km/h 8 km/h 81% 0.0 mm
08:14 21.4 °C 18 °C 1015.0 hPa Oeste 4.6 km/h 7.6 km/h 81% 0.0 mm
08:19 21.5 °C 18.1 °C 1015.0 hPa Oeste 4.7 km/h 8 km/h 81% 0.0 mm
08:24 21.5 °C 18.2 °C 1015.0 hPa Oeste 4.6 km/h 9.5 km/h 81% 0.0 mm
08:29 21.7 °C 18.2 °C 1015.0 hPa Oeste 4.8 km/h 9.7 km/h 81% 0.0 mm
08:34 21.7 °C 18.2 °C 1015.0 hPa ONO 5 km/h 8 km/h 80.1% 0.0 mm
08:39 21.8 °C 18.2 °C 1015.0 hPa ONO 3.3 km/h 8 km/h 80% 0.0 mm
08:44 22 °C 18.2 °C 1015.0 hPa ONO 2.2 km/h 5.8 km/h 79.1% 0.0 mm
08:49 22.2 °C 18.2 °C 1015.0 hPa ONO 2.2 km/h 6.4 km/h 78.4% 0.0 mm
08:54 22.4 °C 18.6 °C 1015.0 hPa NE 2.2 km/h 9.3 km/h 78.9% 0.0 mm
08:59 22.6 °C 18.5 °C 1015.0 hPa ESE 3.8 km/h 9.7 km/h 77.4% 0.0 mm
09:04 22.7 °C 18.6 °C 1015.0 hPa ESE 4.7 km/h 8 km/h 77.6% 0.0 mm
09:09 22.8 °C 18.6 °C 1015.1 hPa SE 4.2 km/h 8.4 km/h 76.8% 0.0 mm
09:14 23 °C 18.5 °C 1015.1 hPa SSE 3.9 km/h 10 km/h 75.9% 0.0 mm
09:19 23.1 °C 18.5 °C 1015.1 hPa SE 4.3 km/h 9.7 km/h 75.3% 0.0 mm
09:24 23.2 °C 18.6 °C 1015.1 hPa ESE 4.7 km/h 9.7 km/h 75.6% 0.0 mm
09:29 23.5 °C 18.7 °C 1015.0 hPa SSE 3.8 km/h 8 km/h 74.6% 0.0 mm
09:34 23.7 °C 18.6 °C 1015.0 hPa SSO 3.2 km/h 8 km/h 73.3% 0.0 mm
09:39 23.8 °C 18.7 °C 1015.0 hPa ONO 3.2 km/h 8.4 km/h 73% 0.0 mm
09:44 23.9 °C 18.7 °C 1015.0 hPa ONO 3.2 km/h 8.7 km/h 72.5% 0.0 mm
09:49 24.1 °C 18.9 °C 1015.0 hPa ONO 3.6 km/h 8 km/h 72.8% 0.0 mm
09:54 24.3 °C 18.8 °C 1015.0 hPa SO 3.9 km/h 9.3 km/h 71.4% 0.0 mm
09:59 24.4 °C 18.8 °C 1014.9 hPa OSO 3.9 km/h 9.7 km/h 71% 0.0 mm
10:04 24.4 °C 18.8 °C 1014.9 hPa OSO 3.9 km/h 8 km/h 71.3% 0.0 mm
10:09 24.4 °C 18.9 °C 1014.9 hPa Oeste 3.9 km/h 7.4 km/h 71.5% 0.0 mm
10:14 24.5 °C 19.1 °C 1014.9 hPa OSO 3.9 km/h 8 km/h 71.9% 0.0 mm
10:19 24.9 °C 19.5 °C 1014.9 hPa Este 3.5 km/h 7.4 km/h 72% 0.0 mm
10:24 25.2 °C 19.5 °C 1014.9 hPa Este 3.2 km/h 8 km/h 70.8% 0.0 mm
10:29 25.5 °C 19.5 °C 1014.9 hPa SE 3.2 km/h 7.4 km/h 69.2% 0.0 mm
10:34 25.8 °C 19.6 °C 1014.9 hPa SSO 3.2 km/h 8 km/h 69% 0.0 mm
10:39 26.1 °C 19.8 °C 1014.9 hPa ENE 3.2 km/h 7.4 km/h 68.6% 0.0 mm
10:44 26.3 °C 19.8 °C 1014.9 hPa Este 3.2 km/h 8 km/h 67.4% 0.0 mm
10:49 26.4 °C 19.7 °C 1014.9 hPa Este 3.6 km/h 8 km/h 66.7% 0.0 mm
10:54 26.4 °C 19.7 °C 1014.9 hPa North 3.9 km/h 9.3 km/h 66.6% 0.0 mm
10:59 26.3 °C 19.6 °C 1014.8 hPa NNE 4.4 km/h 9.7 km/h 66.6% 0.0 mm
11:04 26.3 °C 19.7 °C 1014.8 hPa NE 4.6 km/h 9.7 km/h 67% 0.0 mm
11:09 26.4 °C 19.7 °C 1014.8 hPa NNO 4.6 km/h 10 km/h 66.8% 0.0 mm
11:14 26.6 °C 19.7 °C 1014.7 hPa Este 4.7 km/h 9.7 km/h 66.1% 0.0 mm
11:19 26.7 °C 19.7 °C 1014.7 hPa NNE 4.6 km/h 9.5 km/h 65.6% 0.0 mm
11:24 26.8 °C 19.8 °C 1014.7 hPa North 4.7 km/h 8.4 km/h 65.6% 0.0 mm
11:29 26.9 °C 20 °C 1014.7 hPa North 4.6 km/h 8 km/h 65.7% 0.0 mm
11:34 27.2 °C 19.9 °C 1014.7 hPa NNE 4.6 km/h 9.3 km/h 64.5% 0.0 mm
11:39 27.3 °C 19.9 °C 1014.7 hPa North 4.8 km/h 13.7 km/h 64.1% 0.0 mm
11:44 27.1 °C 19.7 °C 1014.6 hPa ONO 5 km/h 14.5 km/h 64% 0.0 mm
11:49 27.1 °C 19.7 °C 1014.6 hPa North 5 km/h 14.8 km/h 64% 0.0 mm
11:54 27.1 °C 19.7 °C 1014.6 hPa NNE 5 km/h 14.5 km/h 64% 0.0 mm
11:59 27.1 °C 19.7 °C 1014.5 hPa NE 6.1 km/h 11.9 km/h 64% 0.0 mm
12:04 27.2 °C 19.7 °C 1014.5 hPa Este 6.9 km/h 11.3 km/h 63.6% 0.0 mm
12:09 27.3 °C 19.6 °C 1014.5 hPa ENE 6.6 km/h 11.3 km/h 62.7% 0.0 mm
12:14 27.5 °C 19.5 °C 1014.3 hPa SE 6.5 km/h 11.3 km/h 61.6% 0.0 mm
12:19 27.8 °C 19.6 °C 1014.3 hPa Sur 5 km/h 8 km/h 61% 0.0 mm
12:24 28.1 °C 19.8 °C 1014.3 hPa ENE 3.9 km/h 8 km/h 60.6% 0.0 mm
12:29 28.4 °C 19.9 °C 1014.2 hPa NE 3.5 km/h 9.5 km/h 60.1% 0.0 mm
12:34 28.4 °C 19.7 °C 1014.2 hPa NNE 3.2 km/h 14.8 km/h 59.2% 0.0 mm
12:39 28.2 °C 19.7 °C 1014.2 hPa NNO 5.5 km/h 14.5 km/h 60% 0.0 mm
12:44 28.2 °C 19.8 °C 1014.0 hPa NNE 6.9 km/h 14.8 km/h 60.2% 0.0 mm
12:49 28.3 °C 19.7 °C 1014.0 hPa NNO 5.7 km/h 14.5 km/h 59.9% 0.0 mm
12:54 28.4 °C 19.6 °C 1014.0 hPa North 5 km/h 14 km/h 59.1% 0.0 mm
12:59 28.3 °C 19.5 °C 1013.8 hPa NNE 6.1 km/h 14.8 km/h 59% 0.0 mm
13:04 28.3 °C 19.5 °C 1013.8 hPa NNE 6.9 km/h 14.8 km/h 59% 0.0 mm
13:09 28.2 °C 19.5 °C 1013.8 hPa NNO 7.8 km/h 14.8 km/h 59% 0.0 mm
13:14 28.3 °C 19.6 °C 1013.6 hPa NNE 8.4 km/h 16.1 km/h 59.5% 0.0 mm
13:19 28.5 °C 19.7 °C 1013.6 hPa NNE 7.9 km/h 16.7 km/h 58.9% 0.0 mm
13:24 28.7 °C 19.8 °C 1013.6 hPa NNO 7.6 km/h 16.1 km/h 58.5% 0.0 mm
13:29 28.9 °C 19.9 °C 1013.5 hPa North 7.6 km/h 13 km/h 58.3% 0.0 mm
13:34 29.2 °C 19.8 °C 1013.5 hPa NNE 7.6 km/h 13.7 km/h 57.1% 0.0 mm
13:39 29.3 °C 19.7 °C 1013.5 hPa ENE 7.2 km/h 14.5 km/h 56.5% 0.0 mm
13:44 29.4 °C 19.7 °C 1013.3 hPa North 6.9 km/h 16.7 km/h 56.1% 0.0 mm
13:49 29.5 °C 19.8 °C 1013.3 hPa NO 6.7 km/h 16.1 km/h 55.7% 0.0 mm
13:54 29.6 °C 19.9 °C 1013.3 hPa NNO 6.5 km/h 13 km/h 55.8% 0.0 mm
13:59 29.7 °C 19.8 °C 1013.2 hPa NO 6.7 km/h 13 km/h 55.5% 0.0 mm
14:04 29.8 °C 19.8 °C 1013.2 hPa ONO 6.9 km/h 12.9 km/h 55.2% 0.0 mm
14:09 30 °C 20 °C 1013.2 hPa NO 6.3 km/h 13 km/h 54.9% 0.0 mm
14:14 30.2 °C 19.9 °C 1013.0 hPa SO 5.8 km/h 12.9 km/h 54% 0.0 mm
14:19 30.2 °C 19.9 °C 1013.0 hPa SE 6.2 km/h 16.4 km/h 54% 0.0 mm
14:24 30.3 °C 20 °C 1013.0 hPa Este 6.5 km/h 16.7 km/h 54.1% 0.0 mm
14:29 30.5 °C 19.8 °C 1012.8 hPa SE 8.3 km/h 16.7 km/h 53% 0.0 mm
14:34 30.5 °C 19.8 °C 1012.8 hPa Este 9.5 km/h 16.7 km/h 53% 0.0 mm
14:39 30.6 °C 19.9 °C 1012.8 hPa ESE 8.8 km/h 20.9 km/h 53.1% 0.0 mm
14:44 30.7 °C 20 °C 1012.6 hPa SE 8.4 km/h 20.9 km/h 53% 0.0 mm
14:49 30.7 °C 19.9 °C 1012.6 hPa ESE 10 km/h 25.9 km/h 52.5% 0.0 mm
14:54 30.7 °C 19.9 °C 1012.6 hPa ESE 11.1 km/h 25.7 km/h 52.5% 0.0 mm
14:59 30.8 °C 19.8 °C 1012.4 hPa Sur 11.8 km/h 20.9 km/h 52% 0.0 mm
15:04 30.8 °C 20 °C 1012.4 hPa SE 12.2 km/h 20.4 km/h 52.5% 0.0 mm
15:09 30.9 °C 20.1 °C 1012.4 hPa SE 11.6 km/h 20.9 km/h 52.7% 0.0 mm
15:14 30.9 °C 19.8 °C 1012.2 hPa SE 11.1 km/h 20.9 km/h 51.6% 0.0 mm
15:19 30.8 °C 20 °C 1012.2 hPa SE 11.8 km/h 20.9 km/h 52.6% 0.0 mm
15:24 30.9 °C 20.1 °C 1012.2 hPa SE 12.2 km/h 20.9 km/h 52.5% 0.0 mm
15:29 30.9 °C 19.9 °C 1012.2 hPa SE 11 km/h 19.3 km/h 51.9% 0.0 mm
15:34 30.9 °C 19.9 °C 1012.2 hPa ESE 10 km/h 24.1 km/h 51.9% 0.0 mm
15:39 30.9 °C 19.7 °C 1012.2 hPa ESE 11 km/h 24.1 km/h 51.3% 0.0 mm
15:49 30.8 °C 19.2 °C 1012.1 hPa SE 13 km/h 25.9 km/h 50% 0.0 mm
15:54 30.9 °C 19.3 °C 1012.1 hPa ESE 13 km/h 25.7 km/h 50% 0.0 mm
15:59 31.2 °C 19.6 °C 1011.9 hPa ESE 13.5 km/h 22.2 km/h 50.3% 0.0 mm
16:04 31.1 °C 19.4 °C 1011.9 hPa ESE 13.7 km/h 24.1 km/h 49.7% 0.0 mm
16:09 31.2 °C 19.2 °C 1011.9 hPa ESE 12.6 km/h 24.1 km/h 49% 0.0 mm
16:14 31.2 °C 19 °C 1011.7 hPa ESE 11.9 km/h 24.1 km/h 48.3% 0.0 mm
16:19 31.2 °C 18.8 °C 1011.7 hPa SE 10.7 km/h 22.5 km/h 47.7% 0.0 mm
16:24 31.3 °C 18.7 °C 1011.7 hPa ESE 10 km/h 22.5 km/h 47.3% 0.0 mm
16:29 31.3 °C 18.6 °C 1011.6 hPa ESE 10.6 km/h 22.5 km/h 47% 0.0 mm
16:34 31.4 °C 18.5 °C 1011.6 hPa ESE 11.1 km/h 22.5 km/h 46.4% 0.0 mm
16:39 31.4 °C 18.4 °C 1011.6 hPa ESE 11.7 km/h 20.4 km/h 46% 0.0 mm
16:44 31.3 °C 18.3 °C 1011.5 hPa ESE 12.2 km/h 20.9 km/h 46% 0.0 mm
16:49 31.4 °C 18.2 °C 1011.5 hPa SE 11.5 km/h 19.3 km/h 45.6% 0.0 mm
16:54 31.3 °C 18.5 °C 1011.5 hPa ESE 11.1 km/h 22.2 km/h 46.6% 0.0 mm
16:59 31.3 °C 18.4 °C 1011.3 hPa Este 11.1 km/h 22.5 km/h 46.4% 0.0 mm
17:04 31.3 °C 18.9 °C 1011.3 hPa SE 11.1 km/h 24.1 km/h 47.6% 0.0 mm
17:09 31.4 °C 19.1 °C 1011.3 hPa SE 10.6 km/h 14.8 km/h 48% 0.0 mm
17:14 31.6 °C 19.2 °C 1011.1 hPa ESE 10.3 km/h 24.5 km/h 48% 0.0 mm
17:19 31.3 °C 19.2 °C 1011.1 hPa Este 11.3 km/h 24.1 km/h 48.7% 0.0 mm
17:24 31.2 °C 19.3 °C 1011.1 hPa ESE 11.9 km/h 24.1 km/h 49% 0.0 mm
17:29 31.2 °C 19.4 °C 1011.0 hPa SE 12.6 km/h 25.9 km/h 49.7% 0.0 mm
17:34 31.1 °C 19.4 °C 1011.0 hPa ESE 13 km/h 25.7 km/h 49.8% 0.0 mm
17:39 31.1 °C 19.4 °C 1011.0 hPa SE 13 km/h 24.1 km/h 50% 0.0 mm
17:44 31.2 °C 19.5 °C 1010.8 hPa ESE 13 km/h 20.9 km/h 50.1% 0.0 mm
17:49 31.2 °C 19.8 °C 1010.8 hPa ESE 11.9 km/h 20.9 km/h 50.9% 0.0 mm
17:54 31.2 °C 19.7 °C 1010.8 hPa Este 11.1 km/h 20.9 km/h 50.3% 0.0 mm
17:59 31.2 °C 19.5 °C 1010.6 hPa Este 10.4 km/h 20.9 km/h 49.9% 0.0 mm
18:04 31.2 °C 19.4 °C 1010.6 hPa NE 10 km/h 22.2 km/h 49.8% 0.0 mm
18:09 31.2 °C 19.3 °C 1010.6 hPa NE 10.7 km/h 22.5 km/h 49.3% 0.0 mm
18:14 31.1 °C 19.1 °C 1010.4 hPa NE 11.1 km/h 20.9 km/h 49.1% 0.0 mm
18:19 31 °C 19.2 °C 1010.4 hPa NE 12.3 km/h 24.5 km/h 49.4% 0.0 mm
18:24 30.8 °C 18.9 °C 1010.4 hPa NE 13 km/h 24.1 km/h 49% 0.0 mm
18:29 30.7 °C 18.9 °C 1010.4 hPa NE 14.1 km/h 22.5 km/h 49.3% 0.0 mm
18:34 30.7 °C 18.9 °C 1010.4 hPa NE 14.8 km/h 25.9 km/h 49.4% 0.0 mm
18:39 30.8 °C 18.9 °C 1010.4 hPa ENE 13.1 km/h 25.7 km/h 49.2% 0.0 mm
18:44 30.9 °C 18.9 °C 1010.4 hPa NE 11.9 km/h 20.4 km/h 49% 0.0 mm
18:49 30.8 °C 18.8 °C 1010.4 hPa NE 11.4 km/h 22.5 km/h 49% 0.0 mm
18:54 30.6 °C 18.8 °C 1010.4 hPa NE 11.1 km/h 24.1 km/h 49.4% 0.0 mm
18:59 30.5 °C 18.9 °C 1010.3 hPa ENE 11.6 km/h 24.1 km/h 50% 0.0 mm
19:04 30.6 °C 19.1 °C 1010.3 hPa ESE 11.9 km/h 20.4 km/h 50.3% 0.0 mm
19:09 30.4 °C 19.2 °C 1010.3 hPa ESE 11 km/h 22.2 km/h 51.2% 0.0 mm
19:14 30.2 °C 19.3 °C 1010.3 hPa Este 10.3 km/h 22.5 km/h 52% 0.0 mm
19:19 30.2 °C 19.1 °C 1010.3 hPa ESE 10.1 km/h 20.4 km/h 51.5% 0.0 mm
19:24 30.2 °C 19.2 °C 1010.3 hPa ESE 10 km/h 22.5 km/h 52% 0.0 mm
19:29 29.8 °C 19.2 °C 1010.3 hPa ESE 11.2 km/h 24.5 km/h 52.9% 0.0 mm
19:34 29.5 °C 19.3 °C 1010.3 hPa ESE 11.9 km/h 24.1 km/h 54.1% 0.0 mm
19:39 29.3 °C 19.2 °C 1010.4 hPa ESE 14.4 km/h 29.8 km/h 54.6% 0.0 mm
19:44 29.1 °C 19.1 °C 1010.4 hPa Este 16.1 km/h 30.6 km/h 55% 0.0 mm
19:49 28.9 °C 19.3 °C 1010.4 hPa ESE 14.9 km/h 25.9 km/h 56.4% 0.0 mm
19:54 28.7 °C 19.5 °C 1010.5 hPa ESE 14 km/h 25.9 km/h 57.6% 0.0 mm
19:59 28.4 °C 19.5 °C 1010.5 hPa ESE 15.6 km/h 25.7 km/h 58.7% 0.0 mm
20:04 28.4 °C 19.4 °C 1010.5 hPa Este 16.4 km/h 24.1 km/h 58.2% 0.0 mm
20:09 28.6 °C 19.1 °C 1010.6 hPa Este 12.1 km/h 16.7 km/h 56.5% 0.0 mm
20:14 28.5 °C 18.8 °C 1010.6 hPa ENE 9.5 km/h 18.5 km/h 55.7% 0.0 mm
20:19 28.4 °C 19 °C 1010.6 hPa NE 9.8 km/h 19.3 km/h 56.7% 0.0 mm
20:24 28.2 °C 19 °C 1010.8 hPa NE 10 km/h 20.4 km/h 57.4% 0.0 mm
20:29 28 °C 19.1 °C 1010.8 hPa NE 11.9 km/h 20.9 km/h 58.4% 0.0 mm
20:34 27.9 °C 19.2 °C 1010.8 hPa NE 13 km/h 20.9 km/h 59.1% 0.0 mm
20:39 27.7 °C 19.2 °C 1010.8 hPa NE 13 km/h 20.9 km/h 60% 0.0 mm
20:44 27.6 °C 19.4 °C 1010.8 hPa NE 13 km/h 19.8 km/h 61% 0.0 mm
20:49 27.5 °C 19.6 °C 1010.8 hPa NE 13 km/h 22.2 km/h 62.2% 0.0 mm
20:54 27.3 °C 19.8 °C 1010.9 hPa NE 13 km/h 22.5 km/h 63.4% 0.0 mm
20:59 27.2 °C 19.9 °C 1010.9 hPa NE 13.4 km/h 22.5 km/h 64.7% 0.0 mm
21:04 26.9 °C 19.8 °C 1010.9 hPa NE 13.7 km/h 20.9 km/h 65% 0.0 mm
21:09 26.8 °C 19.9 °C 1011.1 hPa NE 12.6 km/h 20.9 km/h 65.9% 0.0 mm
21:14 26.7 °C 19.9 °C 1011.1 hPa NE 11.9 km/h 20.9 km/h 66.1% 0.0 mm
21:19 26.6 °C 20.1 °C 1011.1 hPa NNE 11.9 km/h 19.3 km/h 67.9% 0.0 mm
21:24 26.3 °C 20.2 °C 1011.1 hPa NE 11.9 km/h 22.2 km/h 69% 0.0 mm
21:29 26.1 °C 20.2 °C 1011.1 hPa NNE 12.9 km/h 22.5 km/h 70% 0.0 mm
21:34 25.9 °C 20 °C 1011.1 hPa NE 13.7 km/h 20.9 km/h 70% 0.0 mm
21:39 25.8 °C 20 °C 1011.3 hPa NE 12.8 km/h 24.1 km/h 70.4% 0.0 mm
21:44 25.7 °C 20.1 °C 1011.3 hPa NNE 12.2 km/h 24.1 km/h 71.1% 0.0 mm
21:49 25.7 °C 20.2 °C 1011.3 hPa NNE 12.2 km/h 19.3 km/h 72% 0.0 mm
21:54 25.5 °C 20.2 °C 1011.4 hPa NNE 12.2 km/h 16.7 km/h 72.7% 0.0 mm
21:59 25.3 °C 20.2 °C 1011.4 hPa NNE 11.6 km/h 20.9 km/h 73% 0.0 mm
22:04 25.2 °C 20 °C 1011.4 hPa NNE 11.1 km/h 20.9 km/h 73% 0.0 mm
22:09 25.2 °C 20 °C 1011.5 hPa NNE 11.6 km/h 22.2 km/h 73% 0.0 mm
22:14 25.1 °C 19.9 °C 1011.5 hPa NNE 11.9 km/h 22.5 km/h 73% 0.0 mm
22:19 25 °C 19.9 °C 1011.5 hPa NNE 11.9 km/h 18.5 km/h 73.5% 0.0 mm
22:24 24.9 °C 20 °C 1011.5 hPa NNE 11.9 km/h 19.3 km/h 74% 0.0 mm
22:29 24.9 °C 19.9 °C 1011.5 hPa NE 11.4 km/h 16.1 km/h 74% 0.0 mm
22:34 24.9 °C 20 °C 1011.5 hPa NNE 11.1 km/h 16.7 km/h 74.2% 0.0 mm
22:39 24.9 °C 20.1 °C 1011.6 hPa NE 10.2 km/h 16.7 km/h 75% 0.0 mm
22:44 24.8 °C 20.1 °C 1011.6 hPa NE 9.5 km/h 17.2 km/h 75% 0.0 mm
22:49 24.8 °C 20.2 °C 1011.6 hPa NNE 9.8 km/h 19.3 km/h 75.7% 0.0 mm
22:54 24.8 °C 20.3 °C 1011.8 hPa NNE 10 km/h 19.3 km/h 76% 0.0 mm
22:59 24.8 °C 20.3 °C 1011.8 hPa NNE 10 km/h 16.1 km/h 76% 0.0 mm
23:04 24.7 °C 20.2 °C 1011.8 hPa NNE 10 km/h 16.1 km/h 76% 0.0 mm
23:09 24.7 °C 20.3 °C 1011.8 hPa NE 10 km/h 16.7 km/h 76.8% 0.0 mm
23:14 24.6 °C 20.3 °C 1011.8 hPa NE 10 km/h 15.6 km/h 77% 0.0 mm
23:19 24.6 °C 20.3 °C 1011.8 hPa NE 9.7 km/h 16.1 km/h 77% 0.0 mm
23:24 24.5 °C 20.2 °C 1011.9 hPa NE 9.5 km/h 13 km/h 77% 0.0 mm
23:29 24.4 °C 20.1 °C 1011.9 hPa NNE 8.4 km/h 14.8 km/h 77% 0.0 mm
23:34 24.4 °C 20.3 °C 1011.9 hPa NNE 7.6 km/h 14.8 km/h 77.8% 0.0 mm
23:39 24.4 °C 20.3 °C 1011.9 hPa NE 8.2 km/h 14.5 km/h 78% 0.0 mm
23:44 24.3 °C 20.2 °C 1011.8 hPa NNE 8.7 km/h 11.3 km/h 78% 0.0 mm
23:49 24.3 °C 20.2 °C 1011.8 hPa NE 8 km/h 14 km/h 78% 0.0 mm
23:54 24.2 °C 20.1 °C 1011.8 hPa NE 7.6 km/h 14.8 km/h 78% 0.0 mm
23:59 24.2 °C 20.3 °C 1011.8 hPa NNE 8.7 km/h 14.5 km/h 78.9% 0.0 mm
Murcia-Puente Tocinos, España
Compliments of Weather Underground - 3.5 mb

La estación de MeteoMurcia.com, publica sus datos en los siguientes proyectos:

Weather Underground PWS IMURCIAP2 Meteoclimatic www.awekas.at

W3Counter
Web Analytics